Sparks, Georgia
Current Conditions -  °F | °C
As of 9:55 PM on Monday 22 Dec 2014 (Local Time) from KTMA Reporting Station
Haze Haze  
Wind Chill: 55°   Ceiling: 200
Heat Index: 55°   Visibility: 0.75mi
Dew Point: 55°   Wind: 5mph
Humidity: 100%   Direction: 110°ESE
Pressure: 29.91"   Gusts: NA
Location:  31.17°N, 83.44°W
Report Text: KTMA 230255Z AUTO 11004KT 3/4SM BR OVC002 13/13 A2991 RMK AO2 LTG DSNT SE T01250125
Loading
Personal Weather Stations






























Interactive Weather Map New forecast layout! Learn more

10-Day Weather Forecast

Advertisements
Track Severe Weather on mobile